sensor_id;sensor_type;location;lat;lon;timestamp;P1;durP1;ratioP1;P2;durP2;ratioP2
21492;SDS011;10908;50.690;4.400;2023-03-23T00:02:11;6.50;;;3.60;;
21492;SDS011;10908;50.690;4.400;2023-03-23T00:04:37;7.68;;;3.90;;
21492;SDS011;10908;50.690;4.400;2023-03-23T00:07:02;8.68;;;3.95;;
21492;SDS011;10908;50.690;4.400;2023-03-23T00:09:28;8.10;;;3.70;;
21492;SDS011;10908;50.690;4.400;2023-03-23T00:11:55;7.00;;;4.00;;
21492;SDS011;10908;50.690;4.400;2023-03-23T00:14:22;8.27;;;3.75;;
21492;SDS011;10908;50.690;4.400;2023-03-23T00:16:49;7.30;;;3.53;;
21492;SDS011;10908;50.690;4.400;2023-03-23T00:19:15;7.95;;;3.70;;
21492;SDS011;10908;50.690;4.400;2023-03-23T00:21:44;8.68;;;3.97;;
21492;SDS011;10908;50.690;4.400;2023-03-23T00:24:17;6.70;;;3.75;;
21492;SDS011;10908;50.690;4.400;2023-03-23T00:26:47;8.40;;;3.83;;
21492;SDS011;10908;50.690;4.400;2023-03-23T00:29:17;6.68;;;3.42;;
21492;SDS011;10908;50.690;4.400;2023-03-23T00:31:46;7.65;;;3.65;;
21492;SDS011;10908;50.690;4.400;2023-03-23T00:34:12;6.78;;;3.60;;
21492;SDS011;10908;50.690;4.400;2023-03-23T00:36:43;7.40;;;3.70;;
21492;SDS011;10908;50.690;4.400;2023-03-23T00:39:10;6.85;;;3.60;;
21492;SDS011;10908;50.690;4.400;2023-03-23T00:41:36;9.02;;;3.90;;
21492;SDS011;10908;50.690;4.400;2023-03-23T00:44:03;8.23;;;3.55;;
21492;SDS011;10908;50.690;4.400;2023-03-23T00:46:29;8.65;;;3.65;;
21492;SDS011;10908;50.690;4.400;2023-03-23T00:48:55;5.97;;;3.28;;
21492;SDS011;10908;50.690;4.400;2023-03-23T00:51:22;7.43;;;3.60;;
21492;SDS011;10908;50.690;4.400;2023-03-23T00:53:48;7.72;;;3.55;;
21492;SDS011;10908;50.690;4.400;2023-03-23T00:56:14;6.90;;;3.75;;
21492;SDS011;10908;50.690;4.400;2023-03-23T13:01:04;9.73;;;2.30;;
21492;SDS011;10908;50.690;4.400;2023-03-23T13:06:13;13.68;;;3.40;;
21492;SDS011;10908;50.690;4.400;2023-03-23T13:11:32;9.05;;;2.60;;
21492;SDS011;10908;50.690;4.400;2023-03-23T13:14:03;9.75;;;2.92;;
21492;SDS011;10908;50.690;4.400;2023-03-23T13:28:03;9.07;;;2.42;;
21492;SDS011;10908;50.690;4.400;2023-03-23T13:30:29;9.73;;;2.75;;
21492;SDS011;10908;50.690;4.400;2023-03-23T13:33:05;10.02;;;2.53;;
21492;SDS011;10908;50.690;4.400;2023-03-23T13:35:37;9.93;;;2.85;;
21492;SDS011;10908;50.690;4.400;2023-03-23T13:38:43;11.63;;;2.40;;
21492;SDS011;10908;50.690;4.400;2023-03-23T13:40:57;9.20;;;2.63;;
21492;SDS011;10908;50.690;4.400;2023-03-23T13:43:32;13.02;;;2.72;;
21492;SDS011;10908;50.690;4.400;2023-03-23T13:46:32;11.32;;;1.90;;
21492;SDS011;10908;50.690;4.400;2023-03-23T13:56:42;10.23;;;2.10;;
21492;SDS011;10908;50.690;4.400;2023-03-23T14:01:51;10.05;;;2.22;;
21492;SDS011;10908;50.690;4.400;2023-03-23T14:04:22;11.52;;;2.67;;
21492;SDS011;10908;50.690;4.400;2023-03-23T14:06:55;11.00;;;2.08;;
21492;SDS011;10908;50.690;4.400;2023-03-23T14:09:25;9.93;;;2.47;;
21492;SDS011;10908;50.690;4.400;2023-03-23T14:12:15;9.60;;;2.40;;
21492;SDS011;10908;50.690;4.400;2023-03-23T14:14:56;9.27;;;2.35;;
21492;SDS011;10908;50.690;4.400;2023-03-23T14:17:31;12.20;;;2.50;;
21492;SDS011;10908;50.690;4.400;2023-03-23T14:20:04;9.90;;;2.45;;
21492;SDS011;10908;50.690;4.400;2023-03-23T14:22:35;10.30;;;2.60;;
21492;SDS011;10908;50.690;4.400;2023-03-23T14:25:13;14.55;;;2.80;;
21492;SDS011;10908;50.690;4.400;2023-03-23T14:27:41;9.43;;;2.60;;
21492;SDS011;10908;50.690;4.400;2023-03-23T14:30:09;12.63;;;2.60;;
21492;SDS011;10908;50.690;4.400;2023-03-23T14:32:39;11.18;;;2.78;;
21492;SDS011;10908;50.690;4.400;2023-03-23T14:35:13;9.55;;;2.55;;
21492;SDS011;10908;50.690;4.400;2023-03-23T14:37:42;11.02;;;2.40;;
21492;SDS011;10908;50.690;4.400;2023-03-23T14:40:11;10.02;;;1.85;;
21492;SDS011;10908;50.690;4.400;2023-03-23T14:42:40;10.07;;;2.03;;
21492;SDS011;10908;50.690;4.400;2023-03-23T14:45:06;6.38;;;1.67;;
21492;SDS011;10908;50.690;4.400;2023-03-23T14:47:38;10.05;;;1.80;;
21492;SDS011;10908;50.690;4.400;2023-03-23T14:50:21;6.22;;;1.50;;
21492;SDS011;10908;50.690;4.400;2023-03-23T14:52:47;11.38;;;1.92;;
21492;SDS011;10908;50.690;4.400;2023-03-23T14:55:17;9.05;;;1.80;;
21492;SDS011;10908;50.690;4.400;2023-03-23T14:57:46;10.00;;;1.80;;
21492;SDS011;10908;50.690;4.400;2023-03-23T15:00:16;10.18;;;2.10;;
21492;SDS011;10908;50.690;4.400;2023-03-23T15:02:44;11.93;;;2.17;;
21492;SDS011;10908;50.690;4.400;2023-03-23T15:05:30;13.15;;;2.05;;
21492;SDS011;10908;50.690;4.400;2023-03-23T15:08:18;11.65;;;2.30;;
21492;SDS011;10908;50.690;4.400;2023-03-23T15:10:54;10.45;;;2.00;;
21492;SDS011;10908;50.690;4.400;2023-03-23T15:13:23;11.13;;;2.53;;
21492;SDS011;10908;50.690;4.400;2023-03-23T15:15:49;10.45;;;2.35;;
21492;SDS011;10908;50.690;4.400;2023-03-23T15:18:49;8.80;;;1.90;;
21492;SDS011;10908;50.690;4.400;2023-03-23T15:21:19;10.13;;;2.58;;
21492;SDS011;10908;50.690;4.400;2023-03-23T15:23:48;10.90;;;2.50;;
21492;SDS011;10908;50.690;4.400;2023-03-23T15:26:31;10.60;;;2.47;;
21492;SDS011;10908;50.690;4.400;2023-03-23T15:31:32;10.43;;;2.28;;
21492;SDS011;10908;50.690;4.400;2023-03-23T15:34:00;10.88;;;2.20;;
21492;SDS011;10908;50.690;4.400;2023-03-23T15:36:32;9.88;;;2.40;;
21492;SDS011;10908;50.690;4.400;2023-03-23T15:39:00;9.93;;;2.25;;
21492;SDS011;10908;50.690;4.400;2023-03-23T15:41:27;9.05;;;2.25;;
21492;SDS011;10908;50.690;4.400;2023-03-23T15:47:45;10.25;;;3.13;;
21492;SDS011;10908;50.690;4.400;2023-03-23T15:52:38;11.30;;;2.15;;
21492;SDS011;10908;50.690;4.400;2023-03-23T15:55:15;10.75;;;2.05;;
21492;SDS011;10908;50.690;4.400;2023-03-23T15:57:45;9.90;;;2.10;;
21492;SDS011;10908;50.690;4.400;2023-03-23T16:00:11;7.13;;;2.10;;
21492;SDS011;10908;50.690;4.400;2023-03-23T16:02:37;10.43;;;2.22;;
21492;SDS011;10908;50.690;4.400;2023-03-23T16:05:02;10.85;;;2.17;;
21492;SDS011;10908;50.690;4.400;2023-03-23T16:07:29;9.30;;;2.10;;
21492;SDS011;10908;50.690;4.400;2023-03-23T16:09:55;13.73;;;2.20;;
21492;SDS011;10908;50.690;4.400;2023-03-23T16:12:20;11.13;;;2.33;;
21492;SDS011;10908;50.690;4.400;2023-03-23T16:14:46;10.82;;;2.28;;
21492;SDS011;10908;50.690;4.400;2023-03-23T16:17:14;7.70;;;2.00;;
21492;SDS011;10908;50.690;4.400;2023-03-23T16:19:42;9.15;;;1.80;;
21492;SDS011;10908;50.690;4.400;2023-03-23T16:22:08;6.20;;;1.70;;
21492;SDS011;10908;50.690;4.400;2023-03-23T16:24:34;11.07;;;2.45;;
21492;SDS011;10908;50.690;4.400;2023-03-23T16:26:59;9.27;;;2.03;;
21492;SDS011;10908;50.690;4.400;2023-03-23T16:29:25;12.75;;;2.38;;
21492;SDS011;10908;50.690;4.400;2023-03-23T16:31:51;11.80;;;2.28;;
21492;SDS011;10908;50.690;4.400;2023-03-23T16:34:17;10.27;;;2.13;;
21492;SDS011;10908;50.690;4.400;2023-03-23T16:36:43;11.35;;;2.40;;
21492;SDS011;10908;50.690;4.400;2023-03-23T16:39:10;8.90;;;1.80;;
21492;SDS011;10908;50.690;4.400;2023-03-23T16:41:36;10.82;;;2.25;;
21492;SDS011;10908;50.690;4.400;2023-03-23T16:44:01;9.07;;;2.50;;
21492;SDS011;10908;50.690;4.400;2023-03-23T16:46:27;7.70;;;2.10;;
21492;SDS011;10908;50.690;4.400;2023-03-23T16:48:53;12.00;;;2.83;;
21492;SDS011;10908;50.690;4.400;2023-03-23T16:51:19;8.98;;;2.05;;
21492;SDS011;10908;50.690;4.400;2023-03-23T16:53:45;12.05;;;2.40;;
21492;SDS011;10908;50.690;4.400;2023-03-23T16:56:11;10.02;;;2.67;;
21492;SDS011;10908;50.690;4.400;2023-03-23T16:58:36;11.88;;;2.67;;
21492;SDS011;10908;50.690;4.400;2023-03-23T17:01:02;11.40;;;2.22;;
21492;SDS011;10908;50.690;4.400;2023-03-23T17:03:28;10.32;;;2.65;;
21492;SDS011;10908;50.690;4.400;2023-03-23T17:05:53;9.27;;;2.20;;
21492;SDS011;10908;50.690;4.400;2023-03-23T17:08:19;13.85;;;2.53;;
21492;SDS011;10908;50.690;4.400;2023-03-23T17:10:45;9.20;;;2.15;;
21492;SDS011;10908;50.690;4.400;2023-03-23T17:13:11;8.60;;;2.22;;
21492;SDS011;10908;50.690;4.400;2023-03-23T17:15:38;11.15;;;2.10;;
21492;SDS011;10908;50.690;4.400;2023-03-23T17:18:05;9.82;;;2.15;;
21492;SDS011;10908;50.690;4.400;2023-03-23T17:20:32;11.85;;;2.38;;
21492;SDS011;10908;50.690;4.400;2023-03-23T17:22:58;10.45;;;2.00;;
21492;SDS011;10908;50.690;4.400;2023-03-23T17:25:24;12.10;;;2.58;;
21492;SDS011;10908;50.690;4.400;2023-03-23T17:27:51;12.57;;;2.70;;
21492;SDS011;10908;50.690;4.400;2023-03-23T17:30:17;12.85;;;2.25;;
21492;SDS011;10908;50.690;4.400;2023-03-23T17:32:43;10.80;;;2.40;;
21492;SDS011;10908;50.690;4.400;2023-03-23T17:35:11;8.93;;;2.30;;
21492;SDS011;10908;50.690;4.400;2023-03-23T17:37:36;15.63;;;2.58;;
21492;SDS011;10908;50.690;4.400;2023-03-23T17:40:03;12.27;;;2.38;;
21492;SDS011;10908;50.690;4.400;2023-03-23T17:42:34;10.05;;;2.38;;
21492;SDS011;10908;50.690;4.400;2023-03-23T17:45:00;13.27;;;2.53;;
21492;SDS011;10908;50.690;4.400;2023-03-23T17:47:26;13.75;;;2.30;;
21492;SDS011;10908;50.690;4.400;2023-03-23T17:49:51;12.70;;;2.67;;
21492;SDS011;10908;50.690;4.400;2023-03-23T17:52:17;14.55;;;2.40;;
21492;SDS011;10908;50.690;4.400;2023-03-23T17:54:43;13.77;;;2.90;;
21492;SDS011;10908;50.690;4.400;2023-03-23T17:57:09;11.98;;;2.95;;
21492;SDS011;10908;50.690;4.400;2023-03-23T17:59:35;12.52;;;3.00;;
21492;SDS011;10908;50.690;4.400;2023-03-23T18:02:00;10.63;;;2.22;;
21492;SDS011;10908;50.690;4.400;2023-03-23T18:04:26;12.25;;;2.30;;
21492;SDS011;10908;50.690;4.400;2023-03-23T18:06:53;11.30;;;2.45;;
21492;SDS011;10908;50.690;4.400;2023-03-23T18:09:20;9.90;;;2.15;;
21492;SDS011;10908;50.690;4.400;2023-03-23T18:11:46;14.90;;;2.33;;
21492;SDS011;10908;50.690;4.400;2023-03-23T18:14:12;11.23;;;2.00;;
21492;SDS011;10908;50.690;4.400;2023-03-23T18:16:37;8.13;;;2.20;;
21492;SDS011;10908;50.690;4.400;2023-03-23T18:19:03;14.27;;;2.70;;
21492;SDS011;10908;50.690;4.400;2023-03-23T18:21:30;10.23;;;2.58;;
21492;SDS011;10908;50.690;4.400;2023-03-23T18:23:56;12.80;;;2.60;;
21492;SDS011;10908;50.690;4.400;2023-03-23T18:26:21;8.10;;;2.63;;
21492;SDS011;10908;50.690;4.400;2023-03-23T18:28:49;8.35;;;2.38;;
21492;SDS011;10908;50.690;4.400;2023-03-23T18:31:15;13.23;;;3.08;;
21492;SDS011;10908;50.690;4.400;2023-03-23T18:33:42;11.88;;;2.60;;
21492;SDS011;10908;50.690;4.400;2023-03-23T18:36:11;10.90;;;2.38;;
21492;SDS011;10908;50.690;4.400;2023-03-23T18:38:38;12.77;;;2.40;;
21492;SDS011;10908;50.690;4.400;2023-03-23T18:41:05;13.73;;;2.53;;
21492;SDS011;10908;50.690;4.400;2023-03-23T18:43:32;8.65;;;2.20;;
21492;SDS011;10908;50.690;4.400;2023-03-23T18:45:58;9.65;;;2.38;;
21492;SDS011;10908;50.690;4.400;2023-03-23T18:48:24;12.13;;;2.63;;
21492;SDS011;10908;50.690;4.400;2023-03-23T18:50:51;11.00;;;2.53;;
21492;SDS011;10908;50.690;4.400;2023-03-23T18:53:18;11.13;;;3.05;;
21492;SDS011;10908;50.690;4.400;2023-03-23T18:55:45;11.00;;;2.85;;
21492;SDS011;10908;50.690;4.400;2023-03-23T18:58:12;10.10;;;2.38;;
21492;SDS011;10908;50.690;4.400;2023-03-23T19:00:39;10.13;;;2.70;;
21492;SDS011;10908;50.690;4.400;2023-03-23T19:03:05;11.80;;;2.45;;
21492;SDS011;10908;50.690;4.400;2023-03-23T19:05:32;10.35;;;2.58;;
21492;SDS011;10908;50.690;4.400;2023-03-23T19:07:59;9.15;;;2.40;;
21492;SDS011;10908;50.690;4.400;2023-03-23T19:10:25;10.82;;;2.28;;
21492;SDS011;10908;50.690;4.400;2023-03-23T19:12:51;11.30;;;2.38;;
21492;SDS011;10908;50.690;4.400;2023-03-23T19:15:17;7.30;;;1.67;;
21492;SDS011;10908;50.690;4.400;2023-03-23T19:17:43;10.65;;;2.30;;
21492;SDS011;10908;50.690;4.400;2023-03-23T19:20:10;12.85;;;2.38;;
21492;SDS011;10908;50.690;4.400;2023-03-23T19:22:37;6.57;;;1.85;;
21492;SDS011;10908;50.690;4.400;2023-03-23T19:25:04;11.20;;;2.28;;
21492;SDS011;10908;50.690;4.400;2023-03-23T19:27:31;9.48;;;2.38;;
21492;SDS011;10908;50.690;4.400;2023-03-23T19:29:57;9.98;;;2.30;;
21492;SDS011;10908;50.690;4.400;2023-03-23T19:32:23;11.52;;;2.22;;
21492;SDS011;10908;50.690;4.400;2023-03-23T19:34:48;7.10;;;2.00;;
21492;SDS011;10908;50.690;4.400;2023-03-23T19:37:14;6.25;;;1.88;;
21492;SDS011;10908;50.690;4.400;2023-03-23T19:39:40;7.68;;;1.90;;
21492;SDS011;10908;50.690;4.400;2023-03-23T19:42:06;10.02;;;2.00;;
21492;SDS011;10908;50.690;4.400;2023-03-23T19:44:32;6.32;;;1.95;;
21492;SDS011;10908;50.690;4.400;2023-03-23T19:46:58;8.75;;;2.15;;
21492;SDS011;10908;50.690;4.400;2023-03-23T19:49:24;6.97;;;1.75;;
21492;SDS011;10908;50.690;4.400;2023-03-23T19:51:50;7.30;;;1.92;;
21492;SDS011;10908;50.690;4.400;2023-03-23T19:54:19;5.80;;;1.55;;
21492;SDS011;10908;50.690;4.400;2023-03-23T19:56:45;7.95;;;1.85;;
21492;SDS011;10908;50.690;4.400;2023-03-23T19:59:11;7.05;;;2.15;;
21492;SDS011;10908;50.690;4.400;2023-03-23T20:01:39;6.57;;;1.73;;
21492;SDS011;10908;50.690;4.400;2023-03-23T20:04:06;8.55;;;2.08;;
21492;SDS011;10908;50.690;4.400;2023-03-23T20:06:32;8.00;;;1.83;;
21492;SDS011;10908;50.690;4.400;2023-03-23T20:08:59;11.02;;;1.95;;
21492;SDS011;10908;50.690;4.400;2023-03-23T20:11:24;8.70;;;1.75;;
21492;SDS011;10908;50.690;4.400;2023-03-23T20:13:50;5.75;;;1.48;;
21492;SDS011;10908;50.690;4.400;2023-03-23T20:16:17;8.82;;;1.95;;
21492;SDS011;10908;50.690;4.400;2023-03-23T20:18:43;7.30;;;2.13;;
21492;SDS011;10908;50.690;4.400;2023-03-23T20:21:10;7.22;;;1.80;;
21492;SDS011;10908;50.690;4.400;2023-03-23T20:23:38;10.60;;;2.10;;
21492;SDS011;10908;50.690;4.400;2023-03-23T20:26:06;8.88;;;1.80;;
21492;SDS011;10908;50.690;4.400;2023-03-23T20:28:34;9.80;;;1.92;;
21492;SDS011;10908;50.690;4.400;2023-03-23T20:31:01;8.82;;;1.90;;
21492;SDS011;10908;50.690;4.400;2023-03-23T20:33:34;6.43;;;1.67;;
21492;SDS011;10908;50.690;4.400;2023-03-23T20:36:01;6.38;;;1.85;;
21492;SDS011;10908;50.690;4.400;2023-03-23T20:38:28;6.07;;;2.00;;
21492;SDS011;10908;50.690;4.400;2023-03-23T20:40:59;9.68;;;2.10;;
21492;SDS011;10908;50.690;4.400;2023-03-23T20:43:27;7.70;;;2.10;;
21492;SDS011;10908;50.690;4.400;2023-03-23T20:45:57;6.10;;;1.77;;
21492;SDS011;10908;50.690;4.400;2023-03-23T20:48:24;7.72;;;2.30;;
21492;SDS011;10908;50.690;4.400;2023-03-23T20:50:52;6.57;;;1.92;;
21492;SDS011;10908;50.690;4.400;2023-03-23T20:53:19;9.65;;;2.20;;
21492;SDS011;10908;50.690;4.400;2023-03-23T20:55:46;6.22;;;2.17;;
21492;SDS011;10908;50.690;4.400;2023-03-23T20:58:12;8.88;;;2.10;;
21492;SDS011;10908;50.690;4.400;2023-03-23T21:00:39;6.80;;;2.00;;
21492;SDS011;10908;50.690;4.400;2023-03-23T21:03:05;10.27;;;2.10;;
21492;SDS011;10908;50.690;4.400;2023-03-23T21:05:33;9.48;;;2.60;;
21492;SDS011;10908;50.690;4.400;2023-03-23T21:07:59;8.70;;;2.30;;
21492;SDS011;10908;50.690;4.400;2023-03-23T21:10:25;8.27;;;2.13;;
21492;SDS011;10908;50.690;4.400;2023-03-23T21:12:52;8.10;;;2.33;;
21492;SDS011;10908;50.690;4.400;2023-03-23T21:15:18;7.53;;;2.03;;
21492;SDS011;10908;50.690;4.400;2023-03-23T21:17:44;7.57;;;2.10;;
21492;SDS011;10908;50.690;4.400;2023-03-23T21:20:11;7.18;;;2.10;;
21492;SDS011;10908;50.690;4.400;2023-03-23T21:22:36;10.18;;;2.30;;
21492;SDS011;10908;50.690;4.400;2023-03-23T21:25:03;7.78;;;2.00;;
21492;SDS011;10908;50.690;4.400;2023-03-23T21:27:29;9.63;;;2.40;;
21492;SDS011;10908;50.690;4.400;2023-03-23T21:29:56;9.68;;;2.30;;
21492;SDS011;10908;50.690;4.400;2023-03-23T21:32:24;8.43;;;1.92;;
21492;SDS011;10908;50.690;4.400;2023-03-23T21:34:50;7.68;;;2.10;;
21492;SDS011;10908;50.690;4.400;2023-03-23T21:37:16;7.28;;;2.33;;
21492;SDS011;10908;50.690;4.400;2023-03-23T21:39:42;6.30;;;1.90;;
21492;SDS011;10908;50.690;4.400;2023-03-23T21:42:08;7.38;;;2.05;;
21492;SDS011;10908;50.690;4.400;2023-03-23T21:44:37;8.48;;;2.30;;
21492;SDS011;10908;50.690;4.400;2023-03-23T21:47:07;9.30;;;2.25;;
21492;SDS011;10908;50.690;4.400;2023-03-23T21:49:34;5.45;;;1.85;;
21492;SDS011;10908;50.690;4.400;2023-03-23T21:52:00;8.23;;;2.10;;
21492;SDS011;10908;50.690;4.400;2023-03-23T21:54:26;8.07;;;2.13;;
21492;SDS011;10908;50.690;4.400;2023-03-23T21:56:54;8.25;;;2.00;;
21492;SDS011;10908;50.690;4.400;2023-03-23T21:59:24;6.47;;;1.90;;
21492;SDS011;10908;50.690;4.400;2023-03-23T22:01:50;8.77;;;2.17;;
21492;SDS011;10908;50.690;4.400;2023-03-23T22:04:16;7.28;;;2.30;;
21492;SDS011;10908;50.690;4.400;2023-03-23T22:06:43;7.38;;;2.05;;
21492;SDS011;10908;50.690;4.400;2023-03-23T22:09:08;7.47;;;2.20;;
21492;SDS011;10908;50.690;4.400;2023-03-23T22:11:35;7.72;;;2.22;;
21492;SDS011;10908;50.690;4.400;2023-03-23T22:14:02;8.70;;;2.50;;
21492;SDS011;10908;50.690;4.400;2023-03-23T22:16:29;7.45;;;2.33;;
21492;SDS011;10908;50.690;4.400;2023-03-23T22:18:56;6.68;;;2.28;;
21492;SDS011;10908;50.690;4.400;2023-03-23T22:21:23;5.30;;;2.00;;
21492;SDS011;10908;50.690;4.400;2023-03-23T22:23:50;6.18;;;2.20;;
21492;SDS011;10908;50.690;4.400;2023-03-23T22:26:21;7.50;;;2.30;;
21492;SDS011;10908;50.690;4.400;2023-03-23T22:28:47;5.75;;;2.13;;
21492;SDS011;10908;50.690;4.400;2023-03-23T22:31:25;6.45;;;2.50;;
21492;SDS011;10908;50.690;4.400;2023-03-23T22:33:53;5.65;;;2.15;;
21492;SDS011;10908;50.690;4.400;2023-03-23T22:36:20;5.63;;;2.08;;
21492;SDS011;10908;50.690;4.400;2023-03-23T22:38:47;5.13;;;2.30;;
21492;SDS011;10908;50.690;4.400;2023-03-23T22:41:24;6.47;;;2.50;;
21492;SDS011;10908;50.690;4.400;2023-03-23T22:43:52;5.03;;;2.28;;
21492;SDS011;10908;50.690;4.400;2023-03-23T22:46:18;6.55;;;2.70;;
21492;SDS011;10908;50.690;4.400;2023-03-23T22:48:44;5.43;;;2.42;;
21492;SDS011;10908;50.690;4.400;2023-03-23T22:51:10;5.90;;;2.33;;
21492;SDS011;10908;50.690;4.400;2023-03-23T22:53:38;6.43;;;2.33;;
21492;SDS011;10908;50.690;4.400;2023-03-23T22:56:04;7.18;;;2.30;;
21492;SDS011;10908;50.690;4.400;2023-03-23T22:58:30;6.78;;;2.53;;
21492;SDS011;10908;50.690;4.400;2023-03-23T23:00:57;7.28;;;2.60;;
21492;SDS011;10908;50.690;4.400;2023-03-23T23:03:28;7.35;;;2.45;;
21492;SDS011;10908;50.690;4.400;2023-03-23T23:05:55;6.10;;;2.45;;
21492;SDS011;10908;50.690;4.400;2023-03-23T23:08:22;5.40;;;2.25;;
21492;SDS011;10908;50.690;4.400;2023-03-23T23:10:50;6.82;;;2.45;;
21492;SDS011;10908;50.690;4.400;2023-03-23T23:13:16;5.95;;;2.30;;
21492;SDS011;10908;50.690;4.400;2023-03-23T23:15:44;5.03;;;2.45;;
21492;SDS011;10908;50.690;4.400;2023-03-23T23:18:12;6.70;;;2.38;;
21492;SDS011;10908;50.690;4.400;2023-03-23T23:20:38;6.88;;;2.10;;
21492;SDS011;10908;50.690;4.400;2023-03-23T23:23:05;8.05;;;2.17;;
21492;SDS011;10908;50.690;4.400;2023-03-23T23:25:32;6.43;;;2.30;;
21492;SDS011;10908;50.690;4.400;2023-03-23T23:27:59;5.85;;;2.00;;
21492;SDS011;10908;50.690;4.400;2023-03-23T23:30:26;8.43;;;2.50;;
21492;SDS011;10908;50.690;4.400;2023-03-23T23:32:52;6.93;;;2.10;;
21492;SDS011;10908;50.690;4.400;2023-03-23T23:35:19;4.65;;;1.80;;
21492;SDS011;10908;50.690;4.400;2023-03-23T23:37:46;5.75;;;1.85;;
21492;SDS011;10908;50.690;4.400;2023-03-23T23:40:12;6.30;;;2.10;;
21492;SDS011;10908;50.690;4.400;2023-03-23T23:42:42;4.72;;;2.03;;
21492;SDS011;10908;50.690;4.400;2023-03-23T23:45:09;5.13;;;2.00;;
21492;SDS011;10908;50.690;4.400;2023-03-23T23:47:35;7.10;;;1.90;;
21492;SDS011;10908;50.690;4.400;2023-03-23T23:50:02;7.25;;;1.92;;
21492;SDS011;10908;50.690;4.400;2023-03-23T23:52:31;6.35;;;1.98;;
21492;SDS011;10908;50.690;4.400;2023-03-23T23:54:57;5.07;;;1.85;;
21492;SDS011;10908;50.690;4.400;2023-03-23T23:57:22;4.57;;;1.70;;
21492;SDS011;10908;50.690;4.400;2023-03-23T23:59:48;5.65;;;1.80;;
